Time;durP1;ratioP1;P1;durP2;ratioP2;P2;SDS_P1;SDS_P2;PMS_P1;PMS_P2;Temp;Humidity;BMP_temperature;BMP_pressure;BME280_temperature;BME280_humidity;BME280_pressure;Samples;Min_cycle;Max_cycle;Signal;HPM_P1;HPM_P2
2023/03/14 00:01:16;;;;;;;1.13;1.00;;;;;;;10.93;100.00;94911.00;4949934;28;101785;-61
2023/03/14 00:03:45;;;;;;;4.10;1.30;;;;;;;11.00;100.00;94914.09;4948321;28;105591;-61
2023/03/14 00:06:12;;;;;;;1.50;1.17;;;;;;;10.96;100.00;94923.75;4948029;28;104288;-61
2023/03/14 00:08:40;;;;;;;1.17;1.17;;;;;;;10.96;100.00;94926.41;4952510;28;101836;-61
2023/03/14 00:11:09;;;;;;;1.17;1.10;;;;;;;10.91;100.00;94924.59;4951652;28;105358;-61
2023/03/14 00:13:36;;;;;;;2.27;1.30;;;;;;;10.77;100.00;94912.28;4955586;28;102633;-61
2023/03/14 00:16:05;;;;;;;3.00;1.17;;;;;;;10.89;100.00;94896.69;4953351;28;102345;-61
2023/03/14 00:18:31;;;;;;;3.60;1.40;;;;;;;10.84;100.00;94878.97;4951060;28;105873;-61
2023/03/14 00:21:01;;;;;;;1.70;1.17;;;;;;;10.47;100.00;94873.63;4951496;28;101910;-61
2023/03/14 00:23:28;;;;;;;1.67;1.30;;;;;;;10.42;100.00;94872.91;4952775;28;102704;-61
2023/03/14 00:26:00;;;;;;;3.10;1.50;;;;;;;10.20;100.00;94862.03;4951095;28;105380;-61
2023/03/14 00:28:28;;;;;;;1.87;1.13;;;;;;;10.01;100.00;94855.84;4953050;28;101788;-61
2023/03/14 00:30:55;;;;;;;2.43;1.20;;;;;;;10.02;100.00;94855.56;4951553;28;105126;-61
2023/03/14 00:33:22;;;;;;;1.43;1.17;;;;;;;10.00;100.00;94841.00;4950569;28;106294;-61
2023/03/14 00:35:54;;;;;;;1.97;1.10;;;;;;;10.03;100.00;94835.13;4954756;28;101882;-61
2023/03/14 00:38:24;;;;;;;2.50;1.40;;;;;;;9.89;100.00;94829.72;4950718;28;105901;-61
2023/03/14 00:40:51;;;;;;;2.07;1.33;;;;;;;9.73;100.00;94817.69;4951355;28;101915;-61
2023/03/14 00:43:18;;;;;;;1.10;1.10;;;;;;;9.69;100.00;94795.44;4951461;28;105748;-61
2023/03/14 00:45:45;;;;;;;1.93;1.30;;;;;;;9.72;100.00;94813.47;4950449;28;105801;-61
2023/03/14 00:48:13;;;;;;;1.43;1.20;;;;;;;9.70;100.00;94817.47;4951361;28;101994;-61
2023/03/14 00:50:40;;;;;;;1.17;1.00;;;;;;;9.75;100.00;94807.56;4951126;28;105447;-61
2023/03/14 00:53:08;;;;;;;1.57;1.47;;;;;;;9.57;100.00;94824.22;4951628;28;103058;-61
2023/03/14 00:55:39;;;;;;;1.50;1.40;;;;;;;9.61;100.00;94843.84;4951275;28;102000;-61
2023/03/14 00:58:06;;;;;;;2.30;1.50;;;;;;;9.55;100.00;94842.28;4954004;28;105353;-61
2023/03/14 01:00:33;;;;;;;1.60;1.50;;;;;;;9.57;100.00;94845.47;4950997;28;102294;-61
2023/03/14 01:03:00;;;;;;;1.30;1.30;;;;;;;9.62;100.00;94849.91;4950566;28;105667;-61
2023/03/14 01:05:28;;;;;;;3.10;1.80;;;;;;;9.51;100.00;94854.53;4950313;28;105774;-61
2023/03/14 01:07:55;;;;;;;1.60;1.50;;;;;;;9.40;100.00;94860.22;4952510;28;101882;-61
2023/03/14 01:10:21;;;;;;;1.70;1.60;;;;;;;9.43;100.00;94860.44;4952241;28;102389;-61
2023/03/14 01:12:50;;;;;;;2.87;1.60;;;;;;;9.26;100.00;94841.50;4950273;28;105969;-61
2023/03/14 01:15:17;;;;;;;1.50;1.40;;;;;;;9.13;100.00;94828.09;4952165;28;101687;-61
2023/03/14 01:17:45;;;;;;;2.17;1.60;;;;;;;9.02;100.00;94834.56;4951756;28;102320;-61
2023/03/14 01:20:14;;;;;;;2.47;1.50;;;;;;;8.98;100.00;94836.97;4953460;28;105875;-61
2023/03/14 01:22:42;;;;;;;1.60;1.50;;;;;;;8.93;100.00;94828.25;4950646;28;105221;-61
2023/03/14 01:25:11;;;;;;;1.60;1.50;;;;;;;8.86;100.00;94825.16;4949886;28;105470;-61
2023/03/14 01:27:38;;;;;;;1.90;1.50;;;;;;;8.87;100.00;94832.03;4950792;28;102110;-61
2023/03/14 01:30:08;;;;;;;2.03;1.53;;;;;;;8.91;100.00;94852.41;4950589;28;105423;-61
2023/03/14 01:32:36;;;;;;;1.60;1.50;;;;;;;8.85;100.00;94860.69;4949937;28;105160;-61
2023/03/14 01:35:04;;;;;;;3.43;1.33;;;;;;;8.86;100.00;94878.16;4950595;28;101846;-61
2023/03/14 01:37:30;;;;;;;3.57;3.00;;;;;;;8.90;100.00;94879.19;4950626;28;105404;-61
2023/03/14 01:39:58;;;;;;;3.57;2.80;;;;;;;8.98;100.00;94871.44;4952860;28;105340;-61
2023/03/14 01:42:25;;;;;;;2.50;2.17;;;;;;;8.97;100.00;94847.84;4950557;28;105636;-61
2023/03/14 01:44:54;;;;;;;1.97;1.87;;;;;;;8.96;100.00;94868.28;4949820;28;105226;-61
2023/03/14 01:47:23;;;;;;;1.50;1.40;;;;;;;9.00;100.00;94858.69;4951952;28;101839;-61
2023/03/14 01:49:54;;;;;;;1.80;1.30;;;;;;;8.87;100.00;94832.03;4950090;28;104366;-61
2023/03/14 01:52:26;;;;;;;4.20;1.60;;;;;;;8.92;100.00;94839.94;4949601;28;105780;-61
2023/03/14 01:54:55;;;;;;;1.57;1.47;;;;;;;8.93;100.00;94844.97;4950496;28;101828;-61
2023/03/14 01:57:28;;;;;;;1.90;1.53;;;;;;;8.99;100.00;94856.34;4950255;28;105355;-61
2023/03/14 02:00:00;;;;;;;1.47;1.37;;;;;;;8.99;100.00;94841.22;4951136;28;102722;-61
2023/03/14 02:02:30;;;;;;;0.97;0.97;;;;;;;9.43;100.00;94838.44;4952587;28;101965;-61
2023/03/14 02:04:58;;;;;;;2.17;1.60;;;;;;;9.23;100.00;94833.31;4949538;28;105522;-61
2023/03/14 02:07:37;;;;;;;1.20;1.20;;;;;;;9.64;100.00;94826.53;4950170;28;101924;-61
2023/03/14 02:10:16;;;;;;;1.70;1.13;;;;;;;9.89;100.00;94840.34;4949923;28;105248;-61
2023/03/14 02:12:44;;;;;;;1.30;1.20;;;;;;;10.01;100.00;94837.25;4949377;28;104437;-61
2023/03/14 02:15:23;;;;;;;1.07;1.00;;;;;;;10.19;100.00;94833.91;4949855;28;102090;-61
2023/03/14 02:18:17;;;;;;;1.27;0.97;;;;;;;10.20;100.00;94835.47;4945363;28;103925;-61
2023/03/14 02:21:15;;;;;;;1.10;1.00;;;;;;;10.22;100.00;94830.66;4944658;28;103015;-61
2023/03/14 02:23:48;;;;;;;1.00;1.00;;;;;;;10.28;100.00;94840.13;4949593;28;101961;-61
2023/03/14 02:26:22;;;;;;;1.10;1.00;;;;;;;10.46;100.00;94850.00;4952795;28;104880;-61
2023/03/14 02:28:53;;;;;;;1.07;0.90;;;;;;;10.43;100.00;94862.00;4949881;28;101838;-61
2023/03/14 02:31:21;;;;;;;0.90;0.90;;;;;;;10.29;100.00;94868.28;4948777;28;104844;-61
2023/03/14 02:33:50;;;;;;;1.57;1.20;;;;;;;10.16;100.00;94877.75;4950191;28;102811;-61
2023/03/14 02:36:18;;;;;;;2.73;1.00;;;;;;;10.10;100.00;94878.09;4949657;28;102006;-61
2023/03/14 02:38:51;;;;;;;1.10;1.03;;;;;;;9.98;100.00;94890.94;4949326;28;105621;-61
2023/03/14 02:41:19;;;;;;;1.37;1.17;;;;;;;9.84;100.00;94890.03;4949156;28;105631;-61
2023/03/14 02:43:58;;;;;;;1.77;1.17;;;;;;;9.74;100.00;94892.78;4949627;28;101976;-61
2023/03/14 02:46:25;;;;;;;0.93;0.93;;;;;;;9.66;100.00;94898.72;4949421;28;104872;-61
2023/03/14 02:48:56;;;;;;;1.20;1.10;;;;;;;9.57;100.00;94900.38;4953661;28;102558;-61
2023/03/14 02:51:24;;;;;;;1.10;1.10;;;;;;;9.50;100.00;94908.69;4949525;28;105212;-61
2023/03/14 02:53:52;;;;;;;1.27;1.20;;;;;;;9.48;100.00;94912.69;4948874;28;105662;-60
2023/03/14 02:56:22;;;;;;;0.80;0.80;;;;;;;9.63;100.00;94908.03;4949474;28;101843;-61
2023/03/14 02:58:50;;;;;;;1.77;1.10;;;;;;;9.62;100.00;94909.09;4949484;28;104951;-61
2023/03/14 03:01:28;;;;;;;0.90;0.90;;;;;;;9.59;100.00;94900.91;4948817;28;105277;-61
2023/03/14 03:03:55;;;;;;;2.33;1.50;;;;;;;9.53;100.00;94894.03;4949100;28;101956;-61
2023/03/14 03:06:22;;;;;;;0.83;0.80;;;;;;;9.53;100.00;94894.03;4949351;28;105227;-61
2023/03/14 03:08:49;;;;;;;0.70;0.70;;;;;;;9.55;100.00;94892.69;4948468;28;105758;-61
2023/03/14 03:11:16;;;;;;;2.23;1.00;;;;;;;9.54;100.00;94890.34;4952495;28;101945;-60
2023/03/14 03:13:43;;;;;;;0.90;0.90;;;;;;;9.52;100.00;94898.56;4948593;28;105299;-60
2023/03/14 03:16:13;;;;;;;0.97;0.97;;;;;;;9.51;100.00;94891.69;4949013;28;101923;-60
2023/03/14 03:18:41;;;;;;;0.73;0.73;;;;;;;9.52;100.00;94885.31;4949066;28;105126;-60
2023/03/14 03:21:09;;;;;;;1.07;0.97;;;;;;;9.49;100.00;94885.84;4948472;28;105137;-61
2023/03/14 03:23:36;;;;;;;1.17;0.90;;;;;;;9.49;100.00;94882.44;4950569;28;102014;-61
2023/03/14 03:26:06;;;;;;;1.70;0.90;;;;;;;9.40;100.00;94884.09;4949189;28;104619;-60
2023/03/14 03:28:33;;;;;;;2.33;1.30;;;;;;;9.38;100.00;94894.19;4948465;28;105764;-61
2023/03/14 03:31:06;;;;;;;1.00;0.90;;;;;;;9.27;100.00;94901.44;4948515;28;101834;-61
2023/03/14 03:33:36;;;;;;;0.97;0.97;;;;;;;9.26;100.00;94904.38;4951925;28;103678;-61
2023/03/14 03:36:06;;;;;;;2.17;1.20;;;;;;;9.20;100.00;94911.56;4949044;28;101889;-60
2023/03/14 03:38:37;;;;;;;1.70;1.30;;;;;;;9.17;100.00;94916.66;4948864;28;105274;-61
2023/03/14 03:41:07;;;;;;;1.77;1.13;;;;;;;9.18;100.00;94910.28;4948508;28;105602;-61
2023/03/14 03:43:34;;;;;;;3.13;1.27;;;;;;;9.18;100.00;94911.06;4952170;28;101898;-60
2023/03/14 03:46:05;;;;;;;1.67;1.17;;;;;;;9.16;100.00;94904.47;4952205;28;104781;-61
2023/03/14 03:48:32;;;;;;;1.37;0.83;;;;;;;9.25;100.00;94886.88;4951688;28;103850;-61
2023/03/14 03:51:02;;;;;;;1.37;1.13;;;;;;;9.22;100.00;94877.59;4951984;28;101998;-61
2023/03/14 03:53:30;;;;;;;1.43;0.60;;;;;;;9.23;100.00;94867.78;4955002;28;105280;-61
2023/03/14 03:55:57;;;;;;;2.13;0.60;;;;;;;9.18;100.00;94858.03;4953538;28;101870;-60
2023/03/14 03:58:24;;;;;;;2.00;0.70;;;;;;;9.15;100.00;94841.88;4952129;28;105272;-61
2023/03/14 04:00:51;;;;;;;0.70;0.50;;;;;;;9.05;100.00;94837.44;4951072;28;105387;-61
2023/03/14 04:03:18;;;;;;;1.03;0.60;;;;;;;9.05;100.00;94839.31;4951445;28;101923;-61
2023/03/14 04:05:45;;;;;;;1.17;0.50;;;;;;;8.97;100.00;94839.91;4952128;28;105205;-61
2023/03/14 04:08:11;;;;;;;0.43;0.40;;;;;;;8.94;100.00;94832.53;4951206;28;105727;-61
2023/03/14 04:10:40;;;;;;;0.40;0.40;;;;;;;8.90;100.00;94828.84;4951826;28;102104;-61
2023/03/14 04:13:17;;;;;;;2.37;0.40;;;;;;;8.84;100.00;94833.38;4952011;28;105444;-61
2023/03/14 04:15:49;;;;;;;0.73;0.50;;;;;;;8.73;100.00;94837.16;4954477;28;106340;-61
2023/03/14 04:18:22;;;;;;;0.50;0.50;;;;;;;8.73;100.00;94847.00;4951780;28;104810;-61
2023/03/14 04:20:52;;;;;;;0.63;0.40;;;;;;;8.76;100.00;94843.78;4952177;28;103107;-61
2023/03/14 04:23:20;;;;;;;0.60;0.60;;;;;;;8.77;100.00;94853.31;4951642;28;101900;-61
2023/03/14 04:25:51;;;;;;;0.40;0.40;;;;;;;8.70;100.00;94852.81;4951702;28;104959;-61
2023/03/14 04:28:18;;;;;;;0.40;0.40;;;;;;;8.69;100.00;94845.94;4951036;28;105119;-61
2023/03/14 04:30:46;;;;;;;0.37;0.37;;;;;;;8.75;100.00;94843.00;4952847;28;101819;-60
2023/03/14 04:33:17;;;;;;;0.53;0.30;;;;;;;8.79;100.00;94840.59;4951516;28;105355;-61
2023/03/14 04:35:54;;;;;;;0.87;0.40;;;;;;;8.76;100.00;94835.81;4951006;28;104845;-60
2023/03/14 04:38:21;;;;;;;1.03;0.40;;;;;;;8.79;100.00;94840.59;4954498;28;101884;-60
2023/03/14 04:40:51;;;;;;;0.33;0.30;;;;;;;8.79;100.00;94827.34;4950626;28;105473;-60
2023/03/14 04:43:20;;;;;;;0.40;0.40;;;;;;;8.78;100.00;94820.44;4951301;28;101891;-61
2023/03/14 04:45:51;;;;;;;1.17;1.07;;;;;;;8.78;100.00;94815.16;4951163;28;104501;-61
2023/03/14 04:48:19;;;;;;;1.77;1.57;;;;;;;8.78;100.00;94818.56;4950577;28;105527;-61
2023/03/14 04:50:47;;;;;;;0.83;0.67;;;;;;;8.80;100.00;94828.91;4952814;28;101785;-61
2023/03/14 04:53:16;;;;;;;3.17;2.40;;;;;;;8.81;100.00;94819.88;4950101;28;105270;-60
2023/03/14 04:55:49;;;;;;;6.67;5.03;;;;;;;8.81;100.00;94814.59;4950709;28;105124;-61
2023/03/14 04:58:17;;;;;;;4.23;3.13;;;;;;;8.80;100.00;94815.66;4952537;28;101746;-61
2023/03/14 05:00:45;;;;;;;11.30;8.23;;;;;;;8.77;100.00;94816.22;4953940;28;105235;-65
2023/03/14 05:03:30;;;;;;;33.77;24.50;;;;;;;8.72;100.00;94808.31;4950792;28;101960;-62
2023/03/14 05:06:17;;;;;;;3.40;2.73;;;;;;;8.72;100.00;94808.31;4951022;28;102314;-62
2023/03/14 05:09:05;;;;;;;17.33;12.47;;;;;;;8.65;100.00;94800.66;4950902;28;103666;-62
2023/03/14 05:11:52;;;;;;;0.77;0.77;;;;;;;8.67;100.00;94779.97;4950693;28;101969;-62
2023/03/14 05:14:46;;;;;;;0.57;0.57;;;;;;;8.71;100.00;94770.41;4941931;28;102551;-62
2023/03/14 05:17:33;;;;;;;3.03;1.30;;;;;;;8.69;100.00;94777.06;4967787;28;102323;-62
2023/03/14 05:20:18;;;;;;;2.17;0.93;;;;;;;8.68;100.00;94759.56;4989082;28;101676;-62
2023/03/14 05:23:04;;;;;;;1.70;0.80;;;;;;;8.57;100.00;94758.84;4988650;28;102029;-62
2023/03/14 05:25:45;;;;;;;1.93;0.90;;;;;;;8.62;100.00;94753.50;4993142;28;105246;-62
2023/03/14 05:28:33;;;;;;;1.13;1.03;;;;;;;8.67;100.00;94736.81;4989923;28;103895;-61
2023/03/14 05:31:12;;;;;;;2.33;1.20;;;;;;;8.66;100.00;94740.50;4989245;28;105394;-62
2023/03/14 05:34:04;;;;;;;1.43;0.70;;;;;;;8.63;100.00;94733.13;4991563;28;102071;-62
2023/03/14 05:36:37;;;;;;;0.70;0.70;;;;;;;8.60;100.00;94736.31;4989975;28;105236;-62
2023/03/14 05:39:24;;;;;;;0.60;0.60;;;;;;;8.62;100.00;94718.31;4985593;28;102983;-61
2023/03/14 05:42:11;;;;;;;1.77;0.50;;;;;;;8.62;100.00;94720.94;4989957;28;102049;-61
2023/03/14 05:45:05;;;;;;;0.57;0.50;;;;;;;8.56;100.00;94720.19;4989196;28;102256;-62
2023/03/14 05:47:58;;;;;;;0.63;0.40;;;;;;;8.53;100.00;94707.50;4989213;28;105492;-62
2023/03/14 05:50:47;;;;;;;0.40;0.40;;;;;;;8.51;100.00;94698.25;4993211;28;101953;-62
2023/03/14 05:53:36;;;;;;;0.50;0.50;;;;;;;8.54;100.00;94689.75;4988913;28;105055;-62
2023/03/14 05:56:22;;;;;;;0.80;0.70;;;;;;;8.54;100.00;94677.31;4988219;28;101898;-62
2023/03/14 05:58:58;;;;;;;2.40;0.70;;;;;;;8.54;100.00;94684.44;4989609;28;105464;-61
2023/03/14 06:01:31;;;;;;;0.93;0.80;;;;;;;8.55;100.00;94686.03;4989052;28;105514;-62
2023/03/14 06:04:13;;;;;;;3.37;0.90;;;;;;;8.51;100.00;94690.31;4989546;28;101816;-62
2023/03/14 06:06:42;;;;;;;0.60;0.60;;;;;;;8.34;100.00;94690.72;4990612;28;101732;-62
2023/03/14 06:09:10;;;;;;;1.80;0.83;;;;;;;8.22;100.00;94698.22;4988596;28;105198;-61
2023/03/14 06:11:39;;;;;;;1.10;0.70;;;;;;;8.25;100.00;94686.28;4992546;28;101833;-62
2023/03/14 06:14:08;;;;;;;2.83;0.80;;;;;;;8.27;100.00;94686.78;4988859;28;105434;-62
2023/03/14 06:16:35;;;;;;;1.10;1.00;;;;;;;8.29;100.00;94680.16;4989403;28;101729;-61
2023/03/14 06:19:02;;;;;;;1.60;1.10;;;;;;;8.26;100.00;94672.78;4989494;28;105347;-62
2023/03/14 06:21:31;;;;;;;3.33;2.17;;;;;;;8.25;100.00;94670.41;4988558;28;105551;-62
2023/03/14 06:23:59;;;;;;;2.73;1.50;;;;;;;8.28;100.00;94656.63;4989248;28;101758;-62
2023/03/14 06:26:30;;;;;;;1.30;1.20;;;;;;;8.28;100.00;94660.03;4989164;28;104855;-62
2023/03/14 06:28:59;;;;;;;2.93;1.60;;;;;;;8.27;100.00;94669.06;4988492;28;105234;-62
2023/03/14 06:31:26;;;;;;;2.47;1.10;;;;;;;8.31;100.00;94666.63;4989278;28;102103;-62
2023/03/14 06:33:59;;;;;;;2.23;1.50;;;;;;;8.32;100.00;94669.03;4991893;28;105792;-61
2023/03/14 06:36:31;;;;;;;1.50;1.40;;;;;;;8.39;100.00;94668.72;4989257;28;101813;-62
2023/03/14 06:38:59;;;;;;;1.40;1.30;;;;;;;8.45;100.00;94665.72;4988606;28;105340;-62
2023/03/14 06:41:27;;;;;;;1.63;1.50;;;;;;;8.40;100.00;94651.75;4989803;28;102922;-62
2023/03/14 06:43:54;;;;;;;1.20;1.10;;;;;;;8.49;100.00;94652.69;4990421;28;101820;-62
2023/03/14 06:46:21;;;;;;;2.53;1.20;;;;;;;8.46;100.00;94650.63;4988780;28;105319;-62
2023/03/14 06:48:48;;;;;;;1.00;1.00;;;;;;;8.47;100.00;94660.16;4988346;28;105550;-61
2023/03/14 06:51:15;;;;;;;1.87;1.60;;;;;;;8.36;100.00;94677.19;4988866;28;102125;-61
2023/03/14 06:53:45;;;;;;;1.80;1.70;;;;;;;8.36;100.00;94677.19;4988631;28;105268;-61
2023/03/14 06:56:15;;;;;;;2.30;2.07;;;;;;;8.42;100.00;94686.69;4991738;28;105023;-61
2023/03/14 06:58:42;;;;;;;4.47;2.70;;;;;;;8.40;100.00;94683.53;4990038;28;102869;-61
2023/03/14 07:01:21;;;;;;;2.47;2.17;;;;;;;8.47;100.00;94689.28;4988093;28;105008;-61
2023/03/14 07:03:48;;;;;;;4.50;3.10;;;;;;;8.36;100.00;94699.19;4988417;28;102020;-60
2023/03/14 07:06:15;;;;;;;4.57;2.40;;;;;;;8.37;100.00;94705.25;4988494;28;105556;-60
2023/03/14 07:08:42;;;;;;;2.33;1.93;;;;;;;8.35;100.00;94702.09;4987746;28;105462;-60
2023/03/14 07:11:11;;;;;;;2.43;1.90;;;;;;;8.44;100.00;94695.13;4990003;28;101844;-60
2023/03/14 07:13:40;;;;;;;2.03;1.80;;;;;;;8.43;100.00;94693.56;4988531;28;105274;-60
2023/03/14 07:16:09;;;;;;;2.20;1.60;;;;;;;8.51;100.00;94685.03;4988541;28;105113;-60
2023/03/14 07:18:38;;;;;;;1.60;1.50;;;;;;;8.54;100.00;94693.19;4995470;28;101938;-60
2023/03/14 07:21:07;;;;;;;2.37;1.63;;;;;;;8.55;100.00;94691.31;4991557;28;105481;-60
2023/03/14 07:23:34;;;;;;;3.37;1.90;;;;;;;8.56;100.00;94692.94;4993359;28;101799;-60
2023/03/14 07:26:02;;;;;;;4.63;2.10;;;;;;;8.56;100.00;94687.63;4991966;28;105383;-60
2023/03/14 07:28:32;;;;;;;2.30;1.80;;;;;;;8.57;100.00;94705.88;4991377;28;105378;-60
2023/03/14 07:31:05;;;;;;;4.27;2.00;;;;;;;8.64;100.00;94684.34;4991968;28;102082;-60
2023/03/14 07:33:34;;;;;;;5.70;3.80;;;;;;;8.59;100.00;94697.66;4991701;28;105218;-60
2023/03/14 07:36:03;;;;;;;10.30;5.33;;;;;;;8.58;100.00;94699.53;4991388;28;104116;-60
2023/03/14 07:38:30;;;;;;;18.47;9.23;;;;;;;8.56;100.00;94703.53;4991740;28;101970;-60
2023/03/14 07:41:32;;;;;;;20.77;11.17;;;;;;;8.50;100.00;94715.22;4973326;28;102812;-60
2023/03/14 07:44:21;;;;;;;15.73;8.47;;;;;;;8.50;100.00;94716.00;4990260;28;101769;-60
2023/03/14 07:46:48;;;;;;;12.77;7.13;;;;;;;8.52;100.00;94716.53;4991808;28;105584;-60
2023/03/14 07:49:14;;;;;;;7.17;4.87;;;;;;;8.49;100.00;94711.78;4992406;28;102484;-60
2023/03/14 07:51:43;;;;;;;4.60;4.00;;;;;;;8.47;100.00;94711.28;4991626;28;101868;-60
2023/03/14 07:54:10;;;;;;;3.47;2.90;;;;;;;8.44;100.00;94711.00;4991381;28;105476;-60
2023/03/14 07:56:37;;;;;;;3.10;2.80;;;;;;;8.48;100.00;94717.34;4992172;28;102905;-60
2023/03/14 07:59:04;;;;;;;2.93;2.73;;;;;;;8.48;100.00;94712.84;4991622;28;102016;-60
2023/03/14 08:01:33;;;;;;;2.97;2.77;;;;;;;8.50;100.00;94715.22;4992910;28;102306;-60
2023/03/14 08:03:59;;;;;;;3.07;2.77;;;;;;;8.54;100.00;94709.09;4995126;28;101887;-60
2023/03/14 08:06:27;;;;;;;3.00;2.37;;;;;;;8.59;100.00;94713.53;4992523;28;102263;-60
2023/03/14 08:08:53;;;;;;;3.83;2.53;;;;;;;8.53;100.00;94714.66;4991998;28;102644;-60
2023/03/14 08:11:20;;;;;;;2.13;2.03;;;;;;;8.52;100.00;94710.44;4992776;28;101799;-60
2023/03/14 08:13:49;;;;;;;2.37;2.17;;;;;;;8.57;100.00;94710.41;4991260;28;105290;-60
2023/03/14 08:16:17;;;;;;;2.53;2.30;;;;;;;8.59;100.00;94710.91;4991851;28;102699;-60
2023/03/14 08:18:46;;;;;;;2.20;2.10;;;;;;;8.61;100.00;94712.19;4992648;28;101791;-60
2023/03/14 08:21:13;;;;;;;2.53;2.17;;;;;;;8.60;100.00;94718.56;4992394;28;102505;-60
2023/03/14 08:23:40;;;;;;;3.20;2.57;;;;;;;8.60;100.00;94707.16;4995052;28;102535;-61
2023/03/14 08:26:07;;;;;;;3.03;2.30;;;;;;;8.41;100.00;94708.94;4990886;28;105601;-61
2023/03/14 08:28:34;;;;;;;4.83;2.60;;;;;;;8.40;100.00;94705.50;4990715;28;103302;-61
2023/03/14 08:31:02;;;;;;;3.37;2.60;;;;;;;8.46;100.00;94706.25;4992219;28;102293;-61
2023/03/14 08:33:30;;;;;;;3.60;2.33;;;;;;;8.49;100.00;94697.72;4990876;28;105220;-61
2023/03/14 08:36:01;;;;;;;1.87;1.77;;;;;;;8.56;100.00;94692.94;4991841;28;102530;-61
2023/03/14 08:38:28;;;;;;;3.50;1.70;;;;;;;8.62;100.00;94695.22;4992485;28;102022;-61
2023/03/14 08:40:58;;;;;;;3.73;2.07;;;;;;;8.71;100.00;94690.13;4990888;28;105712;-61
2023/03/14 08:43:25;;;;;;;2.30;2.10;;;;;;;8.70;100.00;94699.13;4991677;28;103002;-61
2023/03/14 08:45:53;;;;;;;1.97;1.87;;;;;;;8.58;100.00;94691.59;4994105;28;102058;-61
2023/03/14 08:48:19;;;;;;;1.90;1.80;;;;;;;8.59;100.00;94697.66;4990233;28;105309;-61
2023/03/14 08:50:46;;;;;;;3.27;1.83;;;;;;;8.48;100.00;94709.41;4990674;28;101905;-61
2023/03/14 08:53:16;;;;;;;1.20;1.20;;;;;;;8.48;100.00;94709.41;4991894;28;102262;-61
2023/03/14 08:55:43;;;;;;;1.33;1.23;;;;;;;8.47;100.00;94715.78;4991530;28;102568;-61
2023/03/14 08:58:10;;;;;;;2.43;1.97;;;;;;;8.43;100.00;94715.53;4992182;28;101794;-61
2023/03/14 09:00:37;;;;;;;2.23;1.30;;;;;;;8.47;100.00;94718.41;4990579;28;105696;-61
2023/03/14 09:03:04;;;;;;;2.43;1.70;;;;;;;8.48;100.00;94727.94;4990727;28;102562;-61
2023/03/14 09:05:34;;;;;;;1.60;1.30;;;;;;;8.48;100.00;94727.94;4990271;28;101842;-61
2023/03/14 09:08:01;;;;;;;2.30;1.80;;;;;;;8.54;100.00;94734.78;4994712;28;102496;-61
2023/03/14 09:10:30;;;;;;;1.17;1.10;;;;;;;8.52;100.00;94734.28;4991845;28;101877;-61
2023/03/14 09:12:58;;;;;;;1.70;1.03;;;;;;;8.60;100.00;94741.63;4991812;28;101930;-61
2023/03/14 09:15:24;;;;;;;0.67;0.67;;;;;;;8.61;100.00;94732.63;4991069;28;103115;-61
2023/03/14 09:17:51;;;;;;;0.40;0.40;;;;;;;8.60;100.00;94739.78;4991503;28;101994;-61
2023/03/14 09:20:18;;;;;;;0.40;0.40;;;;;;;8.62;100.00;94728.91;4991634;28;102852;-61
2023/03/14 09:22:45;;;;;;;0.53;0.53;;;;;;;8.61;100.00;94730.75;4989394;28;105662;-61
2023/03/14 09:25:12;;;;;;;0.60;0.60;;;;;;;8.58;100.00;94726.03;4991720;28;101697;-61
2023/03/14 09:27:40;;;;;;;0.97;0.90;;;;;;;8.60;100.00;94736.31;4990158;28;105491;-61
2023/03/14 09:30:08;;;;;;;0.60;0.60;;;;;;;8.52;100.00;94734.28;4994167;28;102812;-61
2023/03/14 09:32:35;;;;;;;0.50;0.50;;;;;;;8.50;100.00;94731.91;4991422;28;102841;-61
2023/03/14 09:35:02;;;;;;;0.40;0.40;;;;;;;8.50;100.00;94752.31;4990817;28;102754;-61
2023/03/14 09:37:29;;;;;;;2.10;1.90;;;;;;;8.50;100.00;94742.50;4991377;28;101840;-61
2023/03/14 09:39:56;;;;;;;0.77;0.77;;;;;;;8.48;100.00;94759.72;4990707;28;102388;-61
2023/03/14 09:42:27;;;;;;;0.33;0.33;;;;;;;8.47;100.00;94766.91;4990783;28;102654;-61
2023/03/14 09:44:58;;;;;;;0.67;0.40;;;;;;;8.47;100.00;94766.09;4989944;28;101788;-61
2023/03/14 09:47:26;;;;;;;0.50;0.50;;;;;;;8.55;100.00;94765.50;4990824;28;102578;-61
2023/03/14 09:49:53;;;;;;;1.03;1.03;;;;;;;8.48;100.00;94765.03;4990596;28;102497;-61
2023/03/14 09:52:24;;;;;;;5.53;3.20;;;;;;;8.47;100.00;94766.91;4994665;28;102023;-61
2023/03/14 09:54:54;;;;;;;0.80;0.80;;;;;;;8.51;100.00;94770.56;4988995;28;105304;-61
2023/03/14 09:57:24;;;;;;;0.80;0.80;;;;;;;8.47;100.00;94774.03;4991040;28;101775;-61
2023/03/14 09:59:54;;;;;;;2.43;2.10;;;;;;;8.49;100.00;94777.19;4989710;28;105294;-61
2023/03/14 10:02:24;;;;;;;2.67;2.47;;;;;;;8.51;100.00;94785.69;4988439;28;105779;-61
2023/03/14 10:04:53;;;;;;;2.40;2.20;;;;;;;8.57;100.00;94789.88;4989413;28;102216;-61
2023/03/14 10:07:26;;;;;;;1.63;0.80;;;;;;;8.58;100.00;94786.16;4991249;28;101645;-61
2023/03/14 10:09:53;;;;;;;3.17;2.90;;;;;;;8.62;100.00;94787.19;4988885;28;105359;-61
2023/03/14 10:12:21;;;;;;;2.70;1.80;;;;;;;8.66;100.00;94782.91;4994199;28;101807;-61
2023/03/14 10:14:50;;;;;;;1.70;1.60;;;;;;;8.63;100.00;94781.63;4989860;28;102580;-61
2023/03/14 10:17:18;;;;;;;1.27;1.17;;;;;;;8.77;100.00;94784.44;4990890;28;101671;-61
2023/03/14 10:19:56;;;;;;;0.90;0.90;;;;;;;8.80;100.00;94770.59;4990758;28;102328;-61
2023/03/14 10:22:26;;;;;;;2.83;0.93;;;;;;;8.68;100.00;94756.94;4990454;28;102479;-61
2023/03/14 10:24:56;;;;;;;0.77;0.70;;;;;;;8.62;100.00;94750.09;4990677;28;102165;-61
2023/03/14 10:27:29;;;;;;;0.50;0.50;;;;;;;8.69;100.00;94735.47;4990872;28;102530;-61
2023/03/14 10:29:57;;;;;;;1.10;1.00;;;;;;;8.77;100.00;94724.25;4990189;28;101722;-61
2023/03/14 10:32:32;;;;;;;1.50;1.20;;;;;;;8.76;100.00;94720.03;4989197;28;102094;-61
2023/03/14 10:35:22;;;;;;;1.37;1.00;;;;;;;8.77;100.00;94705.69;4993309;28;102300;-61
2023/03/14 10:37:54;;;;;;;1.10;0.80;;;;;;;8.81;100.00;94703.28;4990515;28;101707;-61
2023/03/14 10:40:27;;;;;;;0.90;0.73;;;;;;;8.81;100.00;94700.63;4990569;28;102334;-61
2023/03/14 10:42:55;;;;;;;1.03;0.80;;;;;;;8.80;100.00;94704.34;4988496;28;105301;-61
2023/03/14 10:45:36;;;;;;;1.03;0.97;;;;;;;8.81;100.00;94701.44;4989048;28;101812;-61
2023/03/14 10:48:22;;;;;;;0.80;0.80;;;;;;;8.85;100.00;94706.94;4990333;28;102478;-61
2023/03/14 10:50:56;;;;;;;0.77;0.70;;;;;;;8.90;100.00;94698.97;4988742;28;102650;-61
2023/03/14 10:53:23;;;;;;;1.00;0.57;;;;;;;8.92;100.00;94699.44;4990544;28;101812;-61
2023/03/14 10:55:50;;;;;;;0.50;0.50;;;;;;;9.00;100.00;94693.56;4975703;28;105322;-61
2023/03/14 10:58:23;;;;;;;0.97;0.50;;;;;;;9.00;100.00;94699.63;4971918;28;105700;-61
2023/03/14 11:00:56;;;;;;;0.50;0.50;;;;;;;9.15;100.00;94698.66;4968664;28;105463;-61
2023/03/14 11:03:25;;;;;;;1.27;0.97;;;;;;;9.19;100.00;94705.81;4969451;28;103074;-61
2023/03/14 11:05:58;;;;;;;0.50;0.50;;;;;;;9.20;100.00;94703.91;4970635;28;101970;-61
2023/03/14 11:08:30;;;;;;;2.43;0.60;;;;;;;9.23;100.00;94708.69;4969141;28;105253;-61
2023/03/14 11:11:10;;;;;;;0.70;0.70;;;;;;;9.25;100.00;94706.53;4968345;28;105849;-61
2023/03/14 11:13:44;;;;;;;0.77;0.77;;;;;;;9.22;100.00;94705.22;4970207;28;101707;-61
2023/03/14 11:16:19;;;;;;;1.27;1.17;;;;;;;9.17;100.00;94704.50;4968855;28;105582;-61
2023/03/14 11:19:14;;;;;;;0.77;0.77;;;;;;;9.18;100.00;94696.28;4968280;28;105979;-61
2023/03/14 11:21:53;;;;;;;0.70;0.70;;;;;;;9.11;100.00;94690.50;4973720;28;101690;-61
2023/03/14 11:24:34;;;;;;;1.37;1.27;;;;;;;9.12;100.00;94683.34;4969281;28;102473;-61
2023/03/14 11:27:07;;;;;;;0.80;0.80;;;;;;;9.05;100.00;94690.84;4968523;28;101798;-61
2023/03/14 11:29:40;;;;;;;1.43;0.70;;;;;;;9.21;100.00;94679.78;4970250;28;102335;-61
2023/03/14 11:32:14;;;;;;;0.83;0.23;;;;;;;9.12;100.00;94681.50;4969556;28;102478;-61
2023/03/14 11:34:47;;;;;;;0.40;0.40;;;;;;;9.17;100.00;94684.06;4968557;28;101911;-61
2023/03/14 11:37:21;;;;;;;0.40;0.40;;;;;;;9.21;100.00;94684.31;4968581;28;106447;-61
2023/03/14 11:39:57;;;;;;;0.50;0.50;;;;;;;9.61;100.00;94681.97;4968940;28;102725;-61
2023/03/14 11:42:24;;;;;;;0.30;0.30;;;;;;;9.78;100.00;94682.25;4970322;28;101962;-61